Terminal Aerodrome Forecast
Issued by NWS

Home | Current Version | Previous Version | Text Only | Print | Product List | Glossary On
Versions: 1 2 3 4 5 6 7 8 9 10 11 12 13 14 15 16 17
445
FTUS41 KPBZ 241120
TAFBVI
TAF
KBVI 241120Z 2412/2512 27006KT P6SM SCT080
     FM241600 27010G18KT P6SM SCT250
     FM250100 28005KT P6SM SCT250=

USA.gov is the U.S. government's official web portal to all federal, state and local government web resources and services.